首页
METAR-TAF:

METAR-TAF

机场 :

阿瓦士, 伊朗

纬度: 31-20N, 经度: 048-40E, 海拔: 20米

当前天气观测

该预报发布于35分钟前的06:00 UTC
风速2节,风向
温度 18°C
湿度 73%
气压 1013 hPa
能見度: 4000

METAR: OIAW 290600Z 08002KT 4000 HZ NSC 18/13 Q1013

时间: 10:05 (06:35 UTC)

预报

该预报发布于1小时和5分钟前的05:30 UTC
预报有效从29日的 06点(UTC)到 01日的 12点(UTC)
风速8节,风向西转西北
能見度: 3000
轻雾
成为
从 29日的 08点(UTC)到 29日的 10点(UTC)
能見度: 7000
成为
从 29日的 22点(UTC)到 29日的 24点(UTC)
能見度: 4000
少量云层高于3000英尺
多云层高于10000英尺
短暂存在
从 01日的 00点(UTC)到 01日的 06点(UTC)
能見度: 0800
成为
从 01日的 06点(UTC)到 01日的 08点(UTC)
风速10节,风向西南
能見度: 7000
短暂存在
从 01日的 08点(UTC)到 01日的 12点(UTC)
风速14节,风向西转西南,有时为24节阵风
少量云层高于2500英尺, 积雨云.
散云层高于3000英尺
多云层高于9000英尺

TAF: OIAW 290530Z 2906/0112 30008KT 3000 BR NSC BECMG 2908/2910 7000 BECMG 2922/2924 4000 HZ/BR FEW030 BKN100 TEMPO 0100/0106 0800 FG BECMG 0106/0108 7000 22010KT TEMPO 0108/0112 24014G24KT FEW025CB SCT030 BKN090

超过4000个机场的气象观测和天气预报(METAR&TAF报告)。

可查询的气象台以黄色和红色小点在地图上表示。

将鼠标移到小点上方,可查看气象台名称。

然后点击查看天气观测和预报。

如需切换地图:点击带黑十字的绿色按钮放大地图;点击带横线的绿色按钮缩小地图;或者点击绿色箭头查看邻近地区的地图。


METAR-TAF: